Time;durP1;ratioP1;P1;durP2;ratioP2;P2;SDS_P1;SDS_P2;PMS_P1;PMS_P2;Temp;Humidity;BMP_temperature;BMP_pressure;BME280_temperature;BME280_humidity;BME280_pressure;Samples;Min_cycle;Max_cycle;Signal;HPM_P1;HPM_P2
2021/06/08 00:01:55;;;;;;;;;7.00;7.00;;;;;24.94;40.05;101782.19;5002128;28;45295;-62
2021/06/08 00:04:20;;;;;;;;;10.00;8.00;;;;;24.94;40.17;101776.88;5002443;28;46048;-62
2021/06/08 00:06:46;;;;;;;;;10.33;10.00;;;;;24.95;40.13;101769.81;5001554;28;54325;-62
2021/06/08 00:09:11;;;;;;;;;8.00;8.00;;;;;24.93;39.97;101764.53;5000885;28;48117;-62
2021/06/08 00:11:36;;;;;;;;;10.00;8.33;;;;;24.95;39.95;101764.50;5016660;28;67156;-63
2021/06/08 00:14:02;;;;;;;;;10.00;10.00;;;;;24.94;40.24;101758.31;5001743;28;57054;-63
2021/06/08 00:16:27;;;;;;;;;8.33;8.33;;;;;24.93;39.94;101748.63;5017597;28;45364;-63
2021/06/08 00:18:52;;;;;;;;;8.00;8.00;;;;;24.94;40.00;101747.69;5002036;28;46445;-63
2021/06/08 00:21:18;;;;;;;;;10.33;8.67;;;;;24.94;40.43;101754.81;5000317;28;45380;-63
2021/06/08 00:23:43;;;;;;;;;8.00;8.00;;;;;24.94;40.33;101757.44;5001412;28;60910;-63
2021/06/08 00:26:09;;;;;;;;;8.00;8.00;;;;;24.93;40.56;101753.06;5001697;28;54984;-63
2021/06/08 00:28:34;;;;;;;;;9.00;9.00;;;;;24.92;40.32;101749.53;5001433;28;54919;-63
2021/06/08 00:31:00;;;;;;;;;8.33;8.33;;;;;24.93;40.22;101748.63;5000220;28;57958;-62
2021/06/08 00:33:25;;;;;;;;;8.33;8.33;;;;;24.93;40.27;101747.75;5002134;28;45198;-63
2021/06/08 00:35:50;;;;;;;;;7.00;7.00;;;;;24.93;40.61;101750.41;5002019;28;45239;-63
2021/06/08 00:38:16;;;;;;;;;9.33;8.00;;;;;24.92;40.45;101749.53;5001208;28;52775;-63
2021/06/08 00:40:45;;;;;;;;;10.00;8.00;;;;;24.92;40.30;101746.03;5000319;28;45303;-63
2021/06/08 00:43:11;;;;;;;;;8.00;8.00;;;;;24.92;40.46;101744.22;5003001;28;45416;-63
2021/06/08 00:45:36;;;;;;;;;8.33;8.00;;;;;24.92;40.40;101746.88;5005211;28;45710;-63
2021/06/08 00:48:03;;;;;;;;;9.00;7.33;;;;;24.92;40.38;101751.34;5003775;28;45998;-64
2021/06/08 00:50:28;;;;;;;;;6.67;6.67;;;;;24.92;40.21;101751.34;5003869;28;45333;-64
2021/06/08 00:52:54;;;;;;;;;10.67;9.33;;;;;24.92;40.71;101752.19;5004909;28;45284;-63
2021/06/08 00:55:20;;;;;;;;;6.67;6.67;;;;;24.91;40.55;101757.59;5003304;28;58479;-62
2021/06/08 00:57:45;;;;;;;;;8.33;8.33;;;;;24.90;40.33;101759.38;5000453;28;48461;-63
2021/06/08 01:00:11;;;;;;;;;9.33;9.33;;;;;24.91;40.68;101763.75;5000440;28;45437;-63
2021/06/08 01:02:37;;;;;;;;;8.00;8.00;;;;;24.90;40.55;101751.41;5005277;28;45203;-63
2021/06/08 01:05:07;;;;;;;;;8.00;8.00;;;;;24.92;40.79;101756.66;5003863;28;45403;-64
2021/06/08 01:07:33;;;;;;;;;8.67;8.67;;;;;24.92;40.62;101761.97;5004537;28;46068;-63
2021/06/08 01:10:00;;;;;;;;;8.00;8.00;;;;;24.91;40.49;101761.09;5004523;28;45292;-63
2021/06/08 01:12:26;;;;;;;;;7.33;7.33;;;;;24.91;40.85;101753.13;5003917;28;45377;-63
2021/06/08 01:14:52;;;;;;;;;9.33;9.33;;;;;24.91;40.50;101754.94;5004766;28;45517;-62
2021/06/08 01:17:18;;;;;;;;;9.00;9.00;;;;;24.90;40.63;101751.41;5004592;28;46288;-63
2021/06/08 01:19:43;;;;;;;;;9.00;9.00;;;;;24.90;40.52;101759.38;5004588;28;45236;-63
2021/06/08 01:22:08;;;;;;;;;8.00;8.00;;;;;24.90;40.33;101758.53;5004050;28;64548;-63
2021/06/08 01:24:34;;;;;;;;;8.00;8.00;;;;;24.91;40.85;101762.91;5004780;28;45327;-63
2021/06/08 01:27:00;;;;;;;;;7.67;7.67;;;;;24.90;40.45;101751.41;5019998;28;45451;-63
2021/06/08 01:29:27;;;;;;;;;9.00;9.00;;;;;24.89;40.74;101752.34;5003055;28;45330;-63
2021/06/08 01:31:57;;;;;;;;;9.33;8.00;;;;;24.90;40.81;101748.75;5004702;28;45309;-62
2021/06/08 01:34:23;;;;;;;;;7.00;7.00;;;;;24.89;40.69;101746.19;5003384;28;45425;-62
2021/06/08 01:36:49;;;;;;;;;8.00;8.00;;;;;24.90;41.02;101745.25;5002829;28;46053;-63
2021/06/08 01:39:15;;;;;;;;;8.33;8.33;;;;;24.89;40.87;101743.53;5035721;28;62080;-62
2021/06/08 01:41:40;;;;;;;;;5.00;5.00;;;;;24.89;41.00;101740.88;5004263;28;55385;-62
2021/06/08 01:44:06;;;;;;;;;8.00;7.00;;;;;24.88;40.80;101742.63;5004389;28;45522;-63
2021/06/08 01:46:31;;;;;;;;;8.33;8.33;;;;;24.88;41.13;101739.16;5004394;28;45272;-63
2021/06/08 01:48:57;;;;;;;;;9.33;8.67;;;;;24.88;40.48;101739.16;5004310;28;45394;-62
2021/06/08 01:51:41;;;;;;;;;7.00;6.33;;;;;24.87;40.88;101743.59;5002456;28;54968;-62
2021/06/08 01:54:44;;;;;;;;;7.00;7.00;;;;;24.88;40.96;101749.75;5002708;28;45420;-62
2021/06/08 01:57:16;;;;;;;;;10.00;10.00;;;;;24.87;41.07;101756.00;5003834;28;46177;-63
2021/06/08 02:00:10;;;;;;;;;8.00;7.67;;;;;24.87;40.90;101756.00;5002867;28;45257;-62
2021/06/08 02:02:57;;;;;;;;;7.33;7.33;;;;;24.86;40.87;101752.50;5004431;28;45336;-62
2021/06/08 02:05:46;;;;;;;;;7.00;7.00;;;;;24.86;41.09;101763.13;5004085;28;45278;-63
2021/06/08 02:08:39;;;;;;;;;7.67;6.33;;;;;24.85;41.04;101766.69;5018723;28;46192;-63
2021/06/08 02:11:12;;;;;;;;;9.67;8.00;;;;;24.86;40.86;101768.44;4986213;28;45419;-65
2021/06/08 02:13:37;;;;;;;;;9.33;9.33;;;;;24.85;40.96;101771.13;5002499;28;45520;-61
2021/06/08 02:16:13;;;;;;;;;9.00;7.33;;;;;24.85;40.87;101769.34;5004127;28;45397;-64
2021/06/08 02:18:41;;;;;;;;;9.00;9.00;;;;;24.84;41.20;101775.59;5003904;28;46528;-62
2021/06/08 02:21:08;;;;;;;;;7.00;7.00;;;;;24.85;41.11;101774.66;5002214;28;45349;-62
2021/06/08 02:23:35;;;;;;;;;9.00;7.00;;;;;24.84;41.15;101772.06;5003958;28;45249;-61
2021/06/08 02:26:01;;;;;;;;;8.33;8.33;;;;;24.84;40.98;101774.72;5003947;28;45419;-61
2021/06/08 02:28:31;;;;;;;;;7.67;7.67;;;;;24.83;40.88;101771.22;5002066;28;47942;-61
2021/06/08 02:30:57;;;;;;;;;7.00;6.33;;;;;24.83;41.16;101779.19;5018907;28;45444;-61
2021/06/08 02:33:25;;;;;;;;;8.00;8.00;;;;;24.83;41.28;101779.19;5002357;28;45365;-61
2021/06/08 02:35:51;;;;;;;;;8.33;8.33;;;;;24.83;41.34;101775.66;5002398;28;45620;-61
2021/06/08 02:38:17;;;;;;;;;8.00;8.00;;;;;24.83;41.26;101773.88;5001738;28;47033;-62
2021/06/08 02:40:44;;;;;;;;;9.00;8.00;;;;;24.83;41.34;101775.66;5003264;28;45173;-61
2021/06/08 02:43:10;;;;;;;;;7.33;7.33;;;;;24.83;41.16;101781.84;5003521;28;45356;-61
2021/06/08 02:45:36;;;;;;;;;9.67;8.33;;;;;24.83;41.09;101770.34;5003014;28;47897;-62
2021/06/08 02:48:02;;;;;;;;;8.00;7.67;;;;;24.83;41.47;101780.97;5018597;28;45483;-61
2021/06/08 02:50:29;;;;;;;;;12.00;9.67;;;;;24.82;41.27;101774.81;5035263;28;45334;-61
2021/06/08 02:52:55;;;;;;;;;8.00;8.00;;;;;24.82;41.15;101772.16;5002027;28;45268;-61
2021/06/08 02:55:24;;;;;;;;;12.00;8.00;;;;;24.82;41.61;101772.16;5002084;28;45318;-61
2021/06/08 02:57:51;;;;;;;;;8.00;8.00;;;;;24.81;41.50;101781.88;5001930;28;45323;-61
2021/06/08 03:00:17;;;;;;;;;7.67;7.33;;;;;24.81;41.48;101773.06;5001797;28;45362;-62
2021/06/08 03:02:45;;;;;;;;;7.67;7.67;;;;;24.80;41.37;101784.63;5003244;28;45426;-61
2021/06/08 03:05:15;;;;;;;;;8.00;8.00;;;;;24.81;41.69;101786.34;5017657;28;45261;-62
2021/06/08 03:07:44;;;;;;;;;10.67;8.00;;;;;24.80;41.34;101788.16;5001441;28;46252;-61
2021/06/08 03:10:13;;;;;;;;;7.67;7.67;;;;;24.80;41.62;101789.94;5018053;28;45201;-61
2021/06/08 03:12:46;;;;;;;;;8.67;8.33;;;;;24.79;41.33;101789.09;5003288;28;45264;-61
2021/06/08 03:15:12;;;;;;;;;9.00;9.00;;;;;24.79;41.48;101783.78;5002080;28;45306;-63
2021/06/08 03:17:40;;;;;;;;;8.33;8.33;;;;;24.80;41.59;101797.91;5018052;28;46429;-61
2021/06/08 03:20:12;;;;;;;;;11.00;10.00;;;;;24.79;41.85;101790.88;5001374;28;45410;-61
2021/06/08 03:22:42;;;;;;;;;8.33;8.33;;;;;24.79;41.45;101797.06;5001540;28;45435;-61
2021/06/08 03:25:08;;;;;;;;;7.33;7.33;;;;;24.79;41.19;101798.81;5001921;28;45408;-61
2021/06/08 03:27:34;;;;;;;;;6.67;6.67;;;;;24.78;41.45;101794.44;5002339;28;47021;-61
2021/06/08 03:30:00;;;;;;;;;8.67;8.67;;;;;24.78;41.55;101792.66;5002983;28;45437;-61
2021/06/08 03:32:27;;;;;;;;;7.33;7.33;;;;;24.77;41.28;101790.94;5001632;28;45365;-61
2021/06/08 03:34:52;;;;;;;;;7.67;7.67;;;;;24.76;41.74;101794.53;5018360;28;45542;-62
2021/06/08 03:37:19;;;;;;;;;8.00;8.00;;;;;24.77;41.45;101790.06;5017369;28;53833;-61
2021/06/08 03:39:47;;;;;;;;;9.33;8.00;;;;;24.76;41.63;101797.19;4989702;28;45328;-61
2021/06/08 03:42:12;;;;;;;;;8.00;8.00;;;;;24.76;41.38;101798.97;5002575;28;45532;-61
2021/06/08 03:44:38;;;;;;;;;8.33;8.33;;;;;24.76;41.72;101796.31;5002844;28;45434;-61
2021/06/08 03:47:03;;;;;;;;;8.67;8.67;;;;;24.76;41.51;101798.97;5001066;28;47103;-61
2021/06/08 03:49:29;;;;;;;;;7.00;7.00;;;;;24.75;41.64;101795.47;5000993;28;54295;-61
2021/06/08 03:51:55;;;;;;;;;8.33;8.33;;;;;24.76;41.46;101801.59;5017619;28;45282;-61
2021/06/08 03:54:22;;;;;;;;;8.33;8.00;;;;;24.75;41.78;101802.53;5002782;28;45537;-61
2021/06/08 03:56:51;;;;;;;;;7.00;7.00;;;;;24.75;41.39;101803.41;5002166;28;46643;-61
2021/06/08 03:59:19;;;;;;;;;8.00;8.00;;;;;24.75;41.88;101803.41;5000952;28;45337;-62
2021/06/08 04:01:45;;;;;;;;;9.33;8.00;;;;;24.75;41.85;101803.41;5002236;28;45273;-61
2021/06/08 04:04:11;;;;;;;;;7.00;7.00;;;;;24.74;42.01;101801.69;5018019;28;45360;-61
2021/06/08 04:06:36;;;;;;;;;8.00;8.00;;;;;24.75;41.91;101802.53;5000020;28;60508;-62
2021/06/08 04:09:06;;;;;;;;;10.00;8.00;;;;;24.75;41.72;101797.22;5017524;28;45309;-61
2021/06/08 04:11:31;;;;;;;;;11.00;10.00;;;;;24.74;41.74;101806.13;5000915;28;45332;-61
2021/06/08 04:13:56;;;;;;;;;8.00;8.00;;;;;24.73;41.84;101802.63;5002180;28;45499;-62
2021/06/08 04:16:23;;;;;;;;;9.00;9.00;;;;;24.75;41.42;101810.50;5000961;28;63926;-61
2021/06/08 04:18:48;;;;;;;;;8.00;8.00;;;;;24.74;41.92;101801.69;5001993;28;45288;-61
2021/06/08 04:21:14;;;;;;;;;8.00;8.00;;;;;24.74;42.02;101806.13;5016833;28;45522;-61
2021/06/08 04:23:39;;;;;;;;;10.33;10.33;;;;;24.74;41.65;101808.78;5002145;28;45134;-61
2021/06/08 04:26:05;;;;;;;;;9.33;8.67;;;;;24.74;41.86;101806.13;5001314;28;57637;-61
2021/06/08 04:28:30;;;;;;;;;10.00;9.33;;;;;24.75;41.97;101807.84;5017284;28;45276;-61
2021/06/08 04:30:56;;;;;;;;;8.00;8.00;;;;;24.73;42.07;101799.97;5017350;28;45289;-61
2021/06/08 04:33:27;;;;;;;;;9.00;9.00;;;;;24.75;41.74;101810.50;5002265;28;45459;-61
2021/06/08 04:35:53;;;;;;;;;12.00;8.67;;;;;24.75;41.78;101806.06;5016835;28;46062;-61
2021/06/08 04:38:19;;;;;;;;;7.00;7.00;;;;;24.75;41.46;101806.06;5001687;28;45397;-61
2021/06/08 04:40:46;;;;;;;;;11.00;8.00;;;;;24.76;41.68;101809.56;5000570;28;45670;-61
2021/06/08 04:43:12;;;;;;;;;7.00;7.00;;;;;24.75;41.57;101807.84;5002256;28;45301;-62
2021/06/08 04:45:38;;;;;;;;;8.67;7.67;;;;;24.74;41.61;101812.31;5016771;28;46210;-62
2021/06/08 04:48:04;;;;;;;;;8.00;8.00;;;;;24.76;41.78;101814.88;4999979;28;45285;-62
2021/06/08 04:50:30;;;;;;;;;9.00;9.00;;;;;24.76;41.97;101817.53;5001594;28;45482;-61
2021/06/08 04:52:58;;;;;;;;;9.67;8.67;;;;;24.75;41.51;101808.72;5001625;28;45317;-62
2021/06/08 04:55:25;;;;;;;;;8.67;8.67;;;;;24.75;41.75;101816.69;5001511;28;45361;-62
2021/06/08 04:57:51;;;;;;;;;8.33;8.33;;;;;24.75;42.42;101815.81;5001476;28;46357;-62
2021/06/08 05:00:18;;;;;;;;;6.00;6.00;;;;;24.76;42.19;101817.53;5001866;28;45280;-62
2021/06/08 05:03:20;;;;;;;;;8.00;8.00;;;;;24.75;41.70;101818.47;5000592;28;45533;-62
2021/06/08 05:05:49;;;;;;;;;9.00;9.00;;;;;24.74;41.76;101814.97;4998697;28;46985;-61
2021/06/08 05:08:23;;;;;;;;;9.33;9.33;;;;;24.75;41.90;101813.16;4999991;28;45313;-62
2021/06/08 05:10:51;;;;;;;;;8.33;8.33;;;;;24.75;41.89;101815.81;5001718;28;45224;-63
2021/06/08 05:13:18;;;;;;;;;8.67;8.67;;;;;24.75;41.91;101821.13;5001462;28;45383;-61
2021/06/08 05:15:45;;;;;;;;;8.00;8.00;;;;;24.75;41.83;101821.13;5016708;28;45387;-62
2021/06/08 05:18:12;;;;;;;;;8.67;8.67;;;;;24.74;41.91;101814.97;5016332;28;45269;-62
2021/06/08 05:20:43;;;;;;;;;9.33;9.33;;;;;24.74;42.02;101820.28;4983670;28;45334;-62
2021/06/08 05:23:09;;;;;;;;;8.00;8.00;;;;;24.73;41.86;101813.25;4999829;28;45555;-62
2021/06/08 05:25:37;;;;;;;;;10.67;9.67;;;;;24.75;41.84;101818.47;4999722;28;47039;-63
2021/06/08 05:28:04;;;;;;;;;8.00;8.00;;;;;24.75;42.27;101822.00;5001539;28;45347;-61
2021/06/08 05:30:30;;;;;;;;;9.33;9.33;;;;;24.75;42.01;101823.78;5003416;28;45441;-61
2021/06/08 05:32:55;;;;;;;;;7.67;7.67;;;;;24.74;41.81;101824.69;5004593;28;45308;-61
2021/06/08 05:35:26;;;;;;;;;8.33;8.33;;;;;24.74;41.62;101822.94;5005041;28;46327;-62
2021/06/08 05:37:52;;;;;;;;;8.33;8.00;;;;;24.73;41.71;101820.34;5002782;28;45328;-61
2021/06/08 05:40:22;;;;;;;;;9.00;9.00;;;;;24.73;41.77;101821.19;5019830;28;45245;-61
2021/06/08 05:42:48;;;;;;;;;7.33;7.33;;;;;24.73;41.81;101815.91;5004719;28;45257;-61
2021/06/08 05:45:14;;;;;;;;;8.00;8.00;;;;;24.74;42.39;101825.59;5004152;28;45359;-61
2021/06/08 05:47:40;;;;;;;;;12.67;11.00;;;;;24.74;42.03;101822.94;5002763;28;45209;-62
2021/06/08 05:50:06;;;;;;;;;9.00;9.00;;;;;24.74;42.19;101832.66;5003232;28;45258;-62
2021/06/08 05:52:32;;;;;;;;;9.00;9.00;;;;;24.75;42.12;101837.03;5002689;28;45731;-61
2021/06/08 05:54:58;;;;;;;;;10.00;8.33;;;;;24.74;42.14;101832.66;5003977;28;54952;-62
2021/06/08 05:57:24;;;;;;;;;12.00;9.00;;;;;24.74;42.22;101828.25;4986605;28;45529;-58
2021/06/08 05:59:50;;;;;;;;;7.67;7.00;;;;;24.73;42.40;101828.31;4998363;28;45429;-60
2021/06/08 06:02:16;;;;;;;;;8.67;8.67;;;;;24.75;42.35;101835.28;5035977;28;45478;-59
2021/06/08 06:04:45;;;;;;;;;10.00;10.00;;;;;24.76;42.36;101830.81;5004150;28;45379;-59
2021/06/08 06:07:11;;;;;;;;;10.00;9.33;;;;;24.77;42.49;101830.75;4985749;28;45190;-59
2021/06/08 06:09:37;;;;;;;;;12.00;11.67;;;;;24.77;42.18;101827.22;5001778;28;45769;-60
2021/06/08 06:12:05;;;;;;;;;12.67;9.00;;;;;24.78;42.71;101829.84;5001439;28;45511;-59
2021/06/08 06:14:31;;;;;;;;;9.00;8.00;;;;;24.78;42.44;101824.53;5002589;28;46264;-60
2021/06/08 06:16:56;;;;;;;;;8.33;8.33;;;;;24.78;42.66;101829.84;4998785;28;45438;-59
2021/06/08 06:19:23;;;;;;;;;9.00;7.67;;;;;24.78;42.82;101816.56;5018318;28;45381;-59
2021/06/08 06:21:49;;;;;;;;;7.67;7.67;;;;;24.79;42.40;101825.38;4980021;28;45422;-59
2021/06/08 06:24:14;;;;;;;;;8.67;8.67;;;;;24.79;42.76;101823.59;5003743;28;45290;-59
2021/06/08 06:26:41;;;;;;;;;11.00;9.33;;;;;24.80;42.62;101821.78;5001920;28;45483;-59
2021/06/08 06:29:09;;;;;;;;;10.00;9.00;;;;;24.79;43.14;101828.91;5001813;28;45497;-59
2021/06/08 06:31:35;;;;;;;;;9.00;9.00;;;;;24.80;43.29;101827.09;5000640;28;45585;-59
2021/06/08 06:34:00;;;;;;;;;9.00;9.00;;;;;24.80;43.06;101830.63;5002541;28;47633;-59
2021/06/08 06:36:28;;;;;;;;;11.00;9.33;;;;;24.80;42.88;101832.41;5002377;28;45344;-59
2021/06/08 06:38:56;;;;;;;;;8.33;8.00;;;;;24.80;43.27;101830.63;5017106;28;45675;-59
2021/06/08 06:41:21;;;;;;;;;10.33;10.33;;;;;24.81;42.81;101839.44;4994110;28;45547;-58
2021/06/08 06:43:53;;;;;;;;;9.33;9.00;;;;;24.80;42.89;101838.59;5006959;28;69182;-58
2021/06/08 06:46:18;;;;;;;;;8.00;8.00;;;;;24.81;42.48;101842.09;4997010;28;45726;-58
2021/06/08 06:48:45;;;;;;;;;8.33;8.33;;;;;24.81;42.89;101845.59;4982388;28;45540;-58
2021/06/08 06:51:10;;;;;;;;;10.00;10.00;;;;;24.81;43.17;101842.09;5016188;28;45396;-58
2021/06/08 06:53:36;;;;;;;;;8.33;8.00;;;;;24.81;42.97;101844.75;5014390;28;45934;-58
2021/06/08 06:56:02;;;;;;;;;9.67;8.33;;;;;24.82;42.91;101846.47;5031038;28;45647;-59
2021/06/08 06:58:27;;;;;;;;;10.00;10.00;;;;;24.83;42.97;101845.53;4999347;28;45471;-58
2021/06/08 07:00:54;;;;;;;;;9.00;9.00;;;;;24.84;43.03;101841.97;5029866;28;45486;-57
2021/06/08 07:03:25;;;;;;;;;10.00;8.33;;;;;24.86;42.89;101840.09;4998898;28;46910;-58
2021/06/08 07:05:51;;;;;;;;;9.00;8.33;;;;;24.88;42.99;101835.56;4995984;28;45748;-57
2021/06/08 07:08:22;;;;;;;;;7.00;7.00;;;;;24.90;42.99;101836.34;4998748;28;45431;-58
2021/06/08 07:10:48;;;;;;;;;49.00;36.75;;;;;24.93;43.13;101840.69;4997564;28;45515;-58
2021/06/08 07:13:14;;;;;;;;;33.67;29.33;;;;;24.94;42.84;101840.59;4995128;28;45497;-58
2021/06/08 07:15:40;;;;;;;;;16.33;15.00;;;;;24.98;42.90;101849.28;5013132;28;45474;-58
2021/06/08 07:18:06;;;;;;;;;89.25;77.25;;;;;25.00;43.01;101843.94;4996885;28;46846;-58
2021/06/08 07:20:32;;;;;;;;;34.75;30.25;;;;;25.01;43.11;101833.22;5030492;28;46009;-59
2021/06/08 07:22:58;;;;;;;;;21.33;20.67;;;;;25.04;43.04;101843.72;4999284;28;45437;-59
2021/06/08 07:25:24;;;;;;;;;16.33;14.33;;;;;25.07;42.82;101840.03;4996850;28;46031;-61
2021/06/08 07:27:49;;;;;;;;;10.33;10.33;;;;;25.09;42.76;101840.84;5013559;28;45629;-58
2021/06/08 07:30:16;;;;;;;;;9.00;9.00;;;;;25.10;42.76;101837.25;5013285;28;47406;-59
2021/06/08 07:32:49;;;;;;;;;27.00;22.67;;;;;25.13;42.96;101841.56;4980586;28;48149;-58
2021/06/08 07:35:20;;;;;;;;;26.67;23.00;;;;;25.14;42.86;101841.50;4997062;28;45446;-57
2021/06/08 07:37:50;;;;;;;;;66.75;49.50;;;;;25.16;43.16;101839.63;4998113;28;45584;-57
2021/06/08 07:40:27;;;;;;;;;26.00;20.33;;;;;25.18;42.82;101843.09;4998297;28;45493;-59
2021/06/08 07:42:55;;;;;;;;;18.00;15.33;;;;;25.20;42.75;101845.66;5026341;28;45641;-59
2021/06/08 07:45:23;;;;;;;;;12.33;11.67;;;;;25.21;42.81;101842.94;5014106;28;46784;-59
2021/06/08 07:47:52;;;;;;;;;13.00;11.00;;;;;25.23;42.93;101837.56;4997586;28;45509;-59
2021/06/08 07:50:17;;;;;;;;;9.67;9.00;;;;;25.26;42.70;101834.72;4997532;28;45684;-59
2021/06/08 07:52:43;;;;;;;;;8.67;8.67;;;;;25.29;42.78;101833.75;5013027;28;45288;-59
2021/06/08 07:55:11;;;;;;;;;12.00;11.00;;;;;25.29;42.67;101833.75;4996234;28;58727;-59
2021/06/08 07:57:38;;;;;;;;;10.00;9.33;;;;;25.30;42.56;101831.00;4998013;28;45826;-59
2021/06/08 08:00:06;;;;;;;;;9.67;9.33;;;;;25.32;42.71;101837.13;5013676;28;45384;-59
2021/06/08 08:02:32;;;;;;;;;7.33;7.33;;;;;25.33;42.83;101833.53;4998165;28;46058;-58
2021/06/08 08:05:07;;;;;;;;;11.33;8.00;;;;;25.35;42.46;101830.78;4997786;28;48718;-58
2021/06/08 08:07:33;;;;;;;;;9.67;8.67;;;;;25.37;42.47;101839.56;4997503;28;45536;-59
2021/06/08 08:10:00;;;;;;;;;33.00;26.33;;;;;25.38;42.59;101834.19;4995874;28;46773;-59
2021/06/08 08:12:26;;;;;;;;;10.67;10.67;;;;;25.39;42.61;101830.59;4997428;28;47029;-59
2021/06/08 08:14:52;;;;;;;;;10.00;9.00;;;;;25.40;42.64;101829.66;5008762;28;45506;-59
2021/06/08 08:17:21;;;;;;;;;10.33;10.33;;;;;25.42;42.62;101829.63;4979529;28;45449;-59
2021/06/08 08:19:47;;;;;;;;;26.67;22.33;;;;;25.42;42.63;101821.63;4997556;28;46727;-59
2021/06/08 08:22:12;;;;;;;;;11.33;11.33;;;;;25.44;42.50;101826.88;4979574;28;46132;-59
2021/06/08 08:24:37;;;;;;;;;17.33;14.67;;;;;25.45;42.42;101829.47;4978919;28;45476;-59
2021/06/08 08:27:04;;;;;;;;;60.75;45.00;;;;;25.46;43.05;101820.56;5012845;28;45543;-59
2021/06/08 08:29:30;;;;;;;;;61.25;45.00;;;;;25.47;42.57;101824.06;4999413;28;45603;-59
2021/06/08 08:31:56;;;;;;;;;21.33;19.00;;;;;25.48;42.44;101818.69;4997201;28;46370;-58
2021/06/08 08:34:21;;;;;;;;;13.33;13.33;;;;;25.50;42.37;101818.63;4997716;28;45523;-58
2021/06/08 08:36:46;;;;;;;;;10.67;10.67;;;;;25.51;42.76;101817.69;4997634;28;45491;-59
2021/06/08 08:39:12;;;;;;;;;70.00;50.25;;;;;25.51;42.53;101813.22;4997574;28;45651;-59
2021/06/08 08:41:39;;;;;;;;;56.25;42.00;;;;;25.53;42.52;101821.97;4995958;28;47251;-59
2021/06/08 08:44:07;;;;;;;;;29.33;25.00;;;;;25.54;42.66;101821.03;4992516;28;45422;-58
2021/06/08 08:46:33;;;;;;;;;15.00;12.67;;;;;25.54;42.63;101821.03;5012504;28;46835;-59
2021/06/08 08:48:58;;;;;;;;;11.67;11.33;;;;;25.57;42.61;101820.03;4995810;28;46840;-59
2021/06/08 08:51:26;;;;;;;;;55.00;40.25;;;;;25.58;42.73;101820.91;4996545;28;46244;-58
2021/06/08 08:53:53;;;;;;;;;37.50;32.25;;;;;25.57;42.45;101812.06;4997163;28;45534;-58
2021/06/08 08:56:23;;;;;;;;;17.67;17.67;;;;;25.58;42.54;101810.28;4997393;28;46888;-61
2021/06/08 08:58:49;;;;;;;;;15.00;13.67;;;;;25.56;42.50;101821.84;4997716;28;45629;-58
2021/06/08 09:01:15;;;;;;;;;47.75;37.50;;;;;25.55;42.51;101814.78;5012551;28;45566;-58
2021/06/08 09:03:40;;;;;;;;;108.25;92.50;;;;;25.54;42.38;101807.75;4998174;28;45599;-58
2021/06/08 09:06:07;;;;;;;;;63.75;48.00;;;;;25.53;42.61;101814.00;5000668;28;45342;-58
2021/06/08 09:08:33;;;;;;;;;47.75;35.50;;;;;25.52;42.62;101814.94;4999395;28;45687;-58
2021/06/08 09:10:59;;;;;;;;;27.00;26.00;;;;;25.50;42.70;101811.50;5000210;28;46132;-58
2021/06/08 09:13:25;;;;;;;;;50.25;37.50;;;;;25.49;42.54;101815.09;4998238;28;45580;-59
2021/06/08 09:15:50;;;;;;;;;16.67;15.00;;;;;25.49;42.52;101811.56;5002916;28;45466;-57
2021/06/08 09:18:16;;;;;;;;;29.00;22.67;;;;;25.47;42.52;101803.69;5000262;28;45569;-58
2021/06/08 09:20:41;;;;;;;;;17.67;17.33;;;;;25.46;42.54;101799.31;5014286;28;47203;-60
2021/06/08 09:23:09;;;;;;;;;18.00;17.67;;;;;25.45;42.71;101800.25;5002305;28;46737;-59
2021/06/08 09:25:35;;;;;;;;;14.33;12.67;;;;;25.42;42.55;101795.06;5032740;28;45508;-59
2021/06/08 09:28:33;;;;;;;;;18.33;17.67;;;;;25.41;42.33;101795.97;5000070;28;45403;-58
2021/06/08 09:31:08;;;;;;;;;24.67;22.00;;;;;25.40;42.14;101789.81;4995956;28;45575;-59
2021/06/08 09:33:36;;;;;;;;;24.33;21.00;;;;;25.40;42.46;101794.25;5000102;28;45464;-58
2021/06/08 09:36:08;;;;;;;;;20.67;17.67;;;;;25.38;42.25;101786.34;5000045;28;45483;-59
2021/06/08 09:38:40;;;;;;;;;24.33;22.00;;;;;25.37;42.52;101795.25;5000365;28;45557;-62
2021/06/08 09:41:14;;;;;;;;;19.33;17.67;;;;;25.35;42.57;101781.19;4999424;28;46010;-58
2021/06/08 09:43:49;;;;;;;;;15.00;15.00;;;;;25.35;42.25;101782.97;4995367;28;45537;-58
2021/06/08 09:46:15;;;;;;;;;18.00;17.33;;;;;25.35;42.16;101788.28;4998991;28;45613;-59
2021/06/08 09:49:03;;;;;;;;;16.00;16.00;;;;;25.34;42.27;101786.56;4998877;28;45899;-59
2021/06/08 09:51:57;;;;;;;;;16.00;13.00;;;;;25.33;42.28;101785.72;4998608;28;45502;-59
2021/06/08 09:54:29;;;;;;;;;16.00;14.33;;;;;25.32;42.18;101783.13;4997328;28;45302;-60
2021/06/08 09:57:17;;;;;;;;;15.67;15.67;;;;;25.31;42.39;101784.91;5002042;28;45471;-59
2021/06/08 09:59:47;;;;;;;;;14.00;13.67;;;;;25.30;42.40;101788.50;4999617;28;45462;-60
2021/06/08 10:02:33;;;;;;;;;13.67;13.67;;;;;25.30;42.13;101779.69;4983806;28;46118;-59
2021/06/08 10:05:17;;;;;;;;;18.00;16.00;;;;;25.30;42.13;101782.34;4995447;28;45470;-59
2021/06/08 10:07:43;;;;;;;;;15.33;13.33;;;;;25.29;42.43;101773.50;4999329;28;45541;-60
2021/06/08 10:10:09;;;;;;;;;15.00;15.00;;;;;25.30;42.34;101777.03;5031551;28;45564;-59
2021/06/08 10:12:36;;;;;;;;;15.00;15.00;;;;;25.30;42.28;101774.38;5014910;28;45578;-59
2021/06/08 10:15:07;;;;;;;;;17.00;14.67;;;;;25.29;42.56;101772.66;4994904;28;45458;-59
2021/06/08 10:17:33;;;;;;;;;14.67;14.00;;;;;25.27;42.18;101776.25;4997165;28;45412;-59
2021/06/08 10:20:18;;;;;;;;;15.00;14.00;;;;;25.26;42.35;101774.50;4999045;28;45502;-60
2021/06/08 10:22:43;;;;;;;;;15.67;14.33;;;;;25.27;42.38;101776.25;4998275;28;48173;-59
2021/06/08 10:25:09;;;;;;;;;13.00;13.00;;;;;25.26;42.33;101771.84;4997398;28;58945;-59
2021/06/08 10:27:35;;;;;;;;;14.00;14.00;;;;;25.26;42.36;101770.97;4997147;28;45463;-59
2021/06/08 10:30:00;;;;;;;;;21.00;17.00;;;;;25.26;42.56;101766.53;4981498;28;45729;-60
2021/06/08 10:32:26;;;;;;;;;19.67;16.33;;;;;25.25;42.36;101764.81;5016361;28;46059;-59
2021/06/08 10:34:52;;;;;;;;;17.67;17.67;;;;;25.27;42.16;101759.44;4998400;28;46731;-59
2021/06/08 10:37:18;;;;;;;;;16.33;13.67;;;;;25.28;42.18;101763.81;4998514;28;49586;-59
2021/06/08 10:39:43;;;;;;;;;15.00;15.00;;;;;25.28;42.11;101769.13;4995322;28;45453;-60
2021/06/08 10:42:09;;;;;;;;;18.00;14.67;;;;;25.27;42.24;101760.31;5001218;28;45386;-59
2021/06/08 10:44:35;;;;;;;;;14.33;14.33;;;;;25.27;42.22;101760.31;4995371;28;45505;-60
2021/06/08 10:47:20;;;;;;;;;18.00;16.00;;;;;25.28;42.29;101761.16;4996280;28;45461;-58
2021/06/08 10:49:46;;;;;;;;;15.00;15.00;;;;;25.27;42.29;101762.97;5014213;28;45798;-60
2021/06/08 10:52:14;;;;;;;;;14.67;14.67;;;;;25.30;42.15;101758.44;5000215;28;45680;-57
2021/06/08 10:54:52;;;;;;;;;14.33;14.00;;;;;25.30;42.24;101753.13;5002231;28;45262;-60
2021/06/08 10:57:18;;;;;;;;;15.67;15.00;;;;;25.31;42.39;101758.34;5006360;28;45414;-60
2021/06/08 10:59:45;;;;;;;;;24.00;23.33;;;;;25.32;42.62;101759.22;4995028;28;45384;-59
2021/06/08 11:02:12;;;;;;;;;36.75;32.75;;;;;25.32;42.89;101753.91;5011496;28;48189;-61
2021/06/08 11:04:50;;;;;;;;;35.75;32.50;;;;;25.33;43.30;101759.16;5003110;28;45483;-61
2021/06/08 11:07:16;;;;;;;;;38.25;32.75;;;;;25.34;43.18;101752.03;5017862;28;45466;-59
2021/06/08 11:09:41;;;;;;;;;36.25;31.75;;;;;25.34;43.60;101755.56;5001114;28;45619;-60
2021/06/08 11:12:07;;;;;;;;;29.25;27.75;;;;;25.36;43.52;101750.16;5017149;28;45344;-60
2021/06/08 11:16:58;;;;;;;;;24.33;23.33;;;;;25.37;43.51;101749.22;5001776;28;45189;-60
2021/06/08 11:19:44;;;;;;;;;26.33;25.00;;;;;25.37;43.31;101750.09;5002551;28;45406;-60
2021/06/08 11:22:11;;;;;;;;;26.33;23.67;;;;;25.37;43.14;101747.44;4990433;28;45333;-60
2021/06/08 11:24:41;;;;;;;;;26.00;24.33;;;;;25.38;43.38;101748.28;5002629;28;45358;-60
2021/06/08 11:27:07;;;;;;;;;21.00;19.33;;;;;25.37;42.93;101743.91;5001517;28;45424;-59